V Uno — 9HA3906 — position and weather

sailwx.info

Track history (hours):
 
Tides and Currents Weather Stations Pressure Air Temp Water Temp Dewpoint Dewpoint Depression Visibility Wind Speed Wind Dir Waves Ship Positions

V Uno

Last reported at 2018-Jan-25 19:00 UTC. Time now 2018-Feb-25 08:19 UTC.
Position N 35°58' W 005°33'.
Warning: this ship's position is 30 days out of date.

Length 181 m; draft 10.2 m.

Type: Cargo ship. MMSI: 256408000.

Date/timePositionNaut miles runAvg speedWind from/ knotsBaromVisibWave heightAir tempDewpointWater temp
2018-Jan-25 19:00N 35°58' W 005°33'5 9.9
2018-Jan-25 18:30N 36°00' W 005°28'224 6.4
2018-Jan-24 07:39N 37°13' W 001°04'212.8
2018-Jan-24 07:30N 37°15' W 001°02'712.8
2018-Jan-24 06:55N 37°20' W 000°55'612.6
2018-Jan-24 06:28N 37°23' W 000°49'612.4
2018-Jan-24 05:59N 37°27' W 000°44'612.2
2018-Jan-24 05:29N 37°31' W 000°38'612.2
2018-Jan-24 05:00N 37°35' W 000°33'612.1
2018-Jan-24 04:30N 37°40' W 000°29'611.9
2018-Jan-24 04:00N 37°46' W 000°25'612.1
2018-Jan-24 03:30N 37°51' W 000°21'612.1
2018-Jan-24 03:00N 37°56' W 000°16'611.9
2018-Jan-24 02:30N 38°00' W 000°12'19712.4
2018-Jan-23 10:37N 40°52' E 001°53'112.4
2018-Jan-23 10:30N 40°54' E 001°54'612.1
2018-Jan-23 10:00N 40°59' E 001°58'612.0
2018-Jan-23 09:30N 41°04' E 002°02'510.1
2018-Jan-23 09:01N 41°08' E 002°07'1 2.1
2018-Jan-23 08:30N 41°08' E 002°05'3 5.5
2018-Jan-23 08:00N 41°10' E 002°06'5 9.9
2018-Jan-23 07:30N 41°15' E 002°09'4 7.5
2018-Jan-23 07:00N 41°18' E 002°10'3 6.1
2018-Jan-23 06:30N 41°21' E 002°11'0 0.1
2018-Jan-23 06:00N 41°22' E 002°10'0 0.0
2018-Jan-23 05:30N 41°22' E 002°10'0 0.0
2018-Jan-23 05:00N 41°22' E 002°10'0 0.0
2018-Jan-23 04:30N 41°22' E 002°10'0 0.0
2018-Jan-23 04:00N 41°22' E 002°10'0 0.0
2018-Jan-23 03:30N 41°22' E 002°10'0 0.0
2018-Jan-23 03:00N 41°22' E 002°10'0 0.0
2018-Jan-23 02:30N 41°22' E 002°10'0 0.0
2018-Jan-23 02:00N 41°22' E 002°10'0 0.0
2018-Jan-23 01:30N 41°22' E 002°10'0 0.0
2018-Jan-23 01:00N 41°22' E 002°10'0 0.0
2018-Jan-23 00:30N 41°22' E 002°10'0 0.0
2018-Jan-23 00:00N 41°22' E 002°10'0 0.0
2018-Jan-22 23:30N 41°22' E 002°10'0 0.0
2018-Jan-22 22:57N 41°22' E 002°10'0 0.0
2018-Jan-22 22:30N 41°22' E 002°10'0 0.0
2018-Jan-22 22:00N 41°22' E 002°10'0 0.0
2018-Jan-22 21:30N 41°22' E 002°10'0 0.0
2018-Jan-22 21:00N 41°22' E 002°10'0 0.0
2018-Jan-22 20:30N 41°22' E 002°10'0 0.0
2018-Jan-22 20:00N 41°22' E 002°10'0 0.0
2018-Jan-22 19:30N 41°22' E 002°10'0 0.0
2018-Jan-22 19:00N 41°22' E 002°10'0 0.0
2018-Jan-22 18:30N 41°22' E 002°10'0 0.0
2018-Jan-22 18:00N 41°22' E 002°10'0 0.0
2018-Jan-22 17:30N 41°22' E 002°10'0 0.0
2018-Jan-22 17:00N 41°22' E 002°10'0 0.0
2018-Jan-22 16:27N 41°22' E 002°10'0 0.0
2018-Jan-22 16:00N 41°22' E 002°10'0 0.0
2018-Jan-22 15:30N 41°22' E 002°10'0 0.0
2018-Jan-22 15:00N 41°22' E 002°10'0 0.0
2018-Jan-22 14:30N 41°22' E 002°10'0 0.0
2018-Jan-22 14:00N 41°22' E 002°10'0 0.0
2018-Jan-22 13:30N 41°22' E 002°10'0 0.0
2018-Jan-22 13:00N 41°22' E 002°10'0 0.0
2018-Jan-22 12:30N 41°22' E 002°10'0 0.0
2018-Jan-22 12:00N 41°22' E 002°10'0 0.0
2018-Jan-22 11:30N 41°22' E 002°10'0 0.0
2018-Jan-22 11:00N 41°22' E 002°10'0 0.0
2018-Jan-22 10:30N 41°22' E 002°10'0 0.0
2018-Jan-22 09:51N 41°22' E 002°10'0 0.0
2018-Jan-22 09:30N 41°22' E 002°10'0 0.0
2018-Jan-22 09:00N 41°22' E 002°10'0 0.0
2018-Jan-22 08:30N 41°22' E 002°10'0 0.0
2018-Jan-22 08:00N 41°22' E 002°10'0 0.0
2018-Jan-22 07:30N 41°22' E 002°10'0 0.0
2018-Jan-22 07:00N 41°22' E 002°10'0 0.0
2018-Jan-22 06:18N 41°22' E 002°10'0 0.0
2018-Jan-22 06:00N 41°22' E 002°10'0 0.0
2018-Jan-22 05:30N 41°22' E 002°10'0 0.0
2018-Jan-22 05:00N 41°22' E 002°10'0 0.0
2018-Jan-22 04:30N 41°22' E 002°10'0 0.0
2018-Jan-22 04:00N 41°22' E 002°10'0 0.0
2018-Jan-22 03:30N 41°22' E 002°10'0 0.0
2018-Jan-22 03:00N 41°22' E 002°10'0 0.0
2018-Jan-22 02:30N 41°22' E 002°10'0 0.0
2018-Jan-22 02:00N 41°22' E 002°10'0 0.0
2018-Jan-22 01:30N 41°22' E 002°10'0 0.0
2018-Jan-22 00:57N 41°22' E 002°10'0 0.0
2018-Jan-22 00:30N 41°22' E 002°10'0 0.0
2018-Jan-22 00:00N 41°22' E 002°10'0 0.0
2018-Jan-21 23:30N 41°22' E 002°10'0 0.0
2018-Jan-21 23:00N 41°22' E 002°10'0 0.0
2018-Jan-21 22:30N 41°22' E 002°10'0 0.0
2018-Jan-21 22:00N 41°22' E 002°10'0 0.0
2018-Jan-21 21:30N 41°22' E 002°10'0 0.0
2018-Jan-21 21:00N 41°22' E 002°10'0 0.0
2018-Jan-21 20:30N 41°22' E 002°10'0 0.0
2018-Jan-21 20:00N 41°22' E 002°10'0 0.0
2018-Jan-21 19:30N 41°22' E 002°10'0 0.0
2018-Jan-21 19:00N 41°22' E 002°10'0 0.0
2018-Jan-21 18:30N 41°22' E 002°10'0 0.0
2018-Jan-21 18:00N 41°22' E 002°10'0 0.0
2018-Jan-21 17:27N 41°22' E 002°10'0 0.0
2018-Jan-21 17:00N 41°22' E 002°10'0 0.0
2018-Jan-21 16:30N 41°22' E 002°10'0 0.0
2018-Jan-21 15:57N 41°22' E 002°10'0 0.0
2018-Jan-21 15:24N 41°22' E 002°10'0 0.0
2018-Jan-21 15:00N 41°22' E 002°10'0 0.0
2018-Jan-21 14:30N 41°22' E 002°10'0 0.0
2018-Jan-21 14:00N 41°22' E 002°10'0 0.0
2018-Jan-21 13:30N 41°22' E 002°10'0 0.0
2018-Jan-21 12:57N 41°22' E 002°10'0 0.0
2018-Jan-21 12:30N 41°22' E 002°10'0 0.0
2018-Jan-21 12:00N 41°22' E 002°10'0 0.0
2018-Jan-21 11:30N 41°22' E 002°10'0 0.0
2018-Jan-21 11:00N 41°22' E 002°10'0 0.0
2018-Jan-21 10:30N 41°22' E 002°10'0 0.0
2018-Jan-21 10:00N 41°22' E 002°10'0 0.0
2018-Jan-21 09:30N 41°22' E 002°10'0 0.0
2018-Jan-21 09:00N 41°22' E 002°10'0 0.0
2018-Jan-21 08:30N 41°22' E 002°10'0 0.0
2018-Jan-21 08:00N 41°22' E 002°10'0 0.0
2018-Jan-21 07:30N 41°22' E 002°10'0 0.0
2018-Jan-21 07:00N 41°22' E 002°10'0 0.0
2018-Jan-21 06:30N 41°22' E 002°10'0 0.0
2018-Jan-21 06:00N 41°22' E 002°10'0 0.0
2018-Jan-21 05:30N 41°22' E 002°10'0 0.0
2018-Jan-21 05:00N 41°22' E 002°10'0 0.0
2018-Jan-21 04:30N 41°22' E 002°10'0 0.0
2018-Jan-21 04:00N 41°22' E 002°10'0 0.0
2018-Jan-21 03:30N 41°22' E 002°10'0 0.0
2018-Jan-21 02:59N 41°22' E 002°10'0 0.0
2018-Jan-21 02:30N 41°22' E 002°10'0 0.0
2018-Jan-21 02:00N 41°22' E 002°10'0 0.0
2018-Jan-21 01:30N 41°22' E 002°10'0 0.0
2018-Jan-21 01:00N 41°22' E 002°10'1 1.3
2018-Jan-21 00:30N 41°21' E 002°10'4 7.2
2018-Jan-21 00:00N 41°17' E 002°11'2 3.1
2018-Jan-20 23:30N 41°17' E 002°13'0 0.3
2018-Jan-20 23:00N 41°17' E 002°13'0 0.8
2018-Jan-20 22:30N 41°17' E 002°13'1 1.7
2018-Jan-20 22:00N 41°16' E 002°14'2 3.4
2018-Jan-20 21:30N 41°14' E 002°15'2 4.4
2018-Jan-20 21:00N 41°13' E 002°17'3 6.8
2018-Jan-20 20:30N 41°10' E 002°20'510.9
2018-Jan-20 20:00N 41°06' E 002°24'4611.4
2018-Jan-20 15:57N 40°30' E 003°04'28011.7
2018-Jan-19 16:08N 38°44' E 008°40'211.6
2018-Jan-19 15:59N 38°43' E 008°42'25212.3
2018-Jan-18 19:33N 37°01' E 013°33'211.8
2018-Jan-18 19:22N 36°59' E 013°35'411.6
2018-Jan-18 19:00N 36°57' E 013°39'611.4
2018-Jan-18 18:30N 36°54' E 013°45'611.2
2018-Jan-18 18:00N 36°51' E 013°51'611.4
2018-Jan-18 17:30N 36°48' E 013°57'611.4
2018-Jan-18 17:00N 36°45' E 014°03'611.5
2018-Jan-18 16:30N 36°42' E 014°09'611.7
2018-Jan-18 16:00N 36°39' E 014°16'611.3
2018-Jan-18 15:30N 36°36' E 014°21'611.5
2018-Jan-18 15:00N 36°33' E 014°27'611.9
2018-Jan-18 14:30N 36°29' E 014°33'611.7
2018-Jan-18 14:00N 36°26' E 014°40'  
Track history (hours):
 
Tides and Currents Weather Stations Pressure Air Temp Water Temp Dewpoint Dewpoint Depression Visibility Wind Speed Wind Dir Waves Ship Positions

V Uno

Last reported at 2018-Jan-25 19:00 UTC. Time now 2018-Feb-25 08:19 UTC.
Position N 35°58' W 005°33'.
Warning: this ship's position is 30 days out of date.

Length 181 m; draft 10.2 m.

Type: Cargo ship. MMSI: 256408000.

Date/timePositionNaut miles runAvg speedWind from/ knotsBaromVisibWave heightAir tempDewpointWater temp
2018-Jan-25 19:00N 35°58' W 005°33'5 9.9
2018-Jan-25 18:30N 36°00' W 005°28'224 6.4
2018-Jan-24 07:39N 37°13' W 001°04'212.8
2018-Jan-24 07:30N 37°15' W 001°02'712.8
2018-Jan-24 06:55N 37°20' W 000°55'612.6
2018-Jan-24 06:28N 37°23' W 000°49'612.4
2018-Jan-24 05:59N 37°27' W 000°44'612.2
2018-Jan-24 05:29N 37°31' W 000°38'612.2
2018-Jan-24 05:00N 37°35' W 000°33'612.1
2018-Jan-24 04:30N 37°40' W 000°29'611.9
2018-Jan-24 04:00N 37°46' W 000°25'612.1
2018-Jan-24 03:30N 37°51' W 000°21'612.1
2018-Jan-24 03:00N 37°56' W 000°16'611.9
2018-Jan-24 02:30N 38°00' W 000°12'19712.4
2018-Jan-23 10:37N 40°52' E 001°53'112.4
2018-Jan-23 10:30N 40°54' E 001°54'612.1
2018-Jan-23 10:00N 40°59' E 001°58'612.0
2018-Jan-23 09:30N 41°04' E 002°02'510.1
2018-Jan-23 09:01N 41°08' E 002°07'1 2.1
2018-Jan-23 08:30N 41°08' E 002°05'3 5.5
2018-Jan-23 08:00N 41°10' E 002°06'5 9.9
2018-Jan-23 07:30N 41°15' E 002°09'4 7.5
2018-Jan-23 07:00N 41°18' E 002°10'3 6.1
2018-Jan-23 06:30N 41°21' E 002°11'0 0.1
2018-Jan-23 06:00N 41°22' E 002°10'0 0.0
2018-Jan-23 05:30N 41°22' E 002°10'0 0.0
2018-Jan-23 05:00N 41°22' E 002°10'0 0.0
2018-Jan-23 04:30N 41°22' E 002°10'0 0.0
2018-Jan-23 04:00N 41°22' E 002°10'0 0.0
2018-Jan-23 03:30N 41°22' E 002°10'0 0.0
2018-Jan-23 03:00N 41°22' E 002°10'0 0.0
2018-Jan-23 02:30N 41°22' E 002°10'0 0.0
2018-Jan-23 02:00N 41°22' E 002°10'0 0.0
2018-Jan-23 01:30N 41°22' E 002°10'0 0.0
2018-Jan-23 01:00N 41°22' E 002°10'0 0.0
2018-Jan-23 00:30N 41°22' E 002°10'0 0.0
2018-Jan-23 00:00N 41°22' E 002°10'0 0.0
2018-Jan-22 23:30N 41°22' E 002°10'0 0.0
2018-Jan-22 22:57N 41°22' E 002°10'0 0.0
2018-Jan-22 22:30N 41°22' E 002°10'0 0.0
2018-Jan-22 22:00N 41°22' E 002°10'0 0.0
2018-Jan-22 21:30N 41°22' E 002°10'0 0.0
2018-Jan-22 21:00N 41°22' E 002°10'0 0.0
2018-Jan-22 20:30N 41°22' E 002°10'0 0.0
2018-Jan-22 20:00N 41°22' E 002°10'0 0.0
2018-Jan-22 19:30N 41°22' E 002°10'0 0.0
2018-Jan-22 19:00N 41°22' E 002°10'0 0.0
2018-Jan-22 18:30N 41°22' E 002°10'0 0.0
2018-Jan-22 18:00N 41°22' E 002°10'0 0.0
2018-Jan-22 17:30N 41°22' E 002°10'0 0.0
2018-Jan-22 17:00N 41°22' E 002°10'0 0.0
2018-Jan-22 16:27N 41°22' E 002°10'0 0.0
2018-Jan-22 16:00N 41°22' E 002°10'0 0.0
2018-Jan-22 15:30N 41°22' E 002°10'0 0.0
2018-Jan-22 15:00N 41°22' E 002°10'0 0.0
2018-Jan-22 14:30N 41°22' E 002°10'0 0.0
2018-Jan-22 14:00N 41°22' E 002°10'0 0.0
2018-Jan-22 13:30N 41°22' E 002°10'0 0.0
2018-Jan-22 13:00N 41°22' E 002°10'0 0.0
2018-Jan-22 12:30N 41°22' E 002°10'0 0.0
2018-Jan-22 12:00N 41°22' E 002°10'0 0.0
2018-Jan-22 11:30N 41°22' E 002°10'0 0.0
2018-Jan-22 11:00N 41°22' E 002°10'0 0.0
2018-Jan-22 10:30N 41°22' E 002°10'0 0.0
2018-Jan-22 09:51N 41°22' E 002°10'0 0.0
2018-Jan-22 09:30N 41°22' E 002°10'0 0.0
2018-Jan-22 09:00N 41°22' E 002°10'0 0.0
2018-Jan-22 08:30N 41°22' E 002°10'0 0.0
2018-Jan-22 08:00N 41°22' E 002°10'0 0.0
2018-Jan-22 07:30N 41°22' E 002°10'0 0.0
2018-Jan-22 07:00N 41°22' E 002°10'0 0.0
2018-Jan-22 06:18N 41°22' E 002°10'0 0.0
2018-Jan-22 06:00N 41°22' E 002°10'0 0.0
2018-Jan-22 05:30N 41°22' E 002°10'0 0.0
2018-Jan-22 05:00N 41°22' E 002°10'0 0.0
2018-Jan-22 04:30N 41°22' E 002°10'0 0.0
2018-Jan-22 04:00N 41°22' E 002°10'0 0.0
2018-Jan-22 03:30N 41°22' E 002°10'0 0.0
2018-Jan-22 03:00N 41°22' E 002°10'0 0.0
2018-Jan-22 02:30N 41°22' E 002°10'0 0.0
2018-Jan-22 02:00N 41°22' E 002°10'0 0.0
2018-Jan-22 01:30N 41°22' E 002°10'0 0.0
2018-Jan-22 00:57N 41°22' E 002°10'0 0.0
2018-Jan-22 00:30N 41°22' E 002°10'0 0.0
2018-Jan-22 00:00N 41°22' E 002°10'0 0.0
2018-Jan-21 23:30N 41°22' E 002°10'0 0.0
2018-Jan-21 23:00N 41°22' E 002°10'0 0.0
2018-Jan-21 22:30N 41°22' E 002°10'0 0.0
2018-Jan-21 22:00N 41°22' E 002°10'0 0.0
2018-Jan-21 21:30N 41°22' E 002°10'0 0.0
2018-Jan-21 21:00N 41°22' E 002°10'0 0.0
2018-Jan-21 20:30N 41°22' E 002°10'0 0.0
2018-Jan-21 20:00N 41°22' E 002°10'0 0.0
2018-Jan-21 19:30N 41°22' E 002°10'0 0.0
2018-Jan-21 19:00N 41°22' E 002°10'0 0.0
2018-Jan-21 18:30N 41°22' E 002°10'0 0.0
2018-Jan-21 18:00N 41°22' E 002°10'0 0.0
2018-Jan-21 17:27N 41°22' E 002°10'0 0.0
2018-Jan-21 17:00N 41°22' E 002°10'0 0.0
2018-Jan-21 16:30N 41°22' E 002°10'0 0.0
2018-Jan-21 15:57N 41°22' E 002°10'0 0.0
2018-Jan-21 15:24N 41°22' E 002°10'0 0.0
2018-Jan-21 15:00N 41°22' E 002°10'0 0.0
2018-Jan-21 14:30N 41°22' E 002°10'0 0.0
2018-Jan-21 14:00N 41°22' E 002°10'0 0.0
2018-Jan-21 13:30N 41°22' E 002°10'0 0.0
2018-Jan-21 12:57N 41°22' E 002°10'0 0.0
2018-Jan-21 12:30N 41°22' E 002°10'0 0.0
2018-Jan-21 12:00N 41°22' E 002°10'0 0.0
2018-Jan-21 11:30N 41°22' E 002°10'0 0.0
2018-Jan-21 11:00N 41°22' E 002°10'0 0.0
2018-Jan-21 10:30N 41°22' E 002°10'0 0.0
2018-Jan-21 10:00N 41°22' E 002°10'0 0.0
2018-Jan-21 09:30N 41°22' E 002°10'0 0.0
2018-Jan-21 09:00N 41°22' E 002°10'0 0.0
2018-Jan-21 08:30N 41°22' E 002°10'0 0.0
2018-Jan-21 08:00N 41°22' E 002°10'0 0.0
2018-Jan-21 07:30N 41°22' E 002°10'0 0.0
2018-Jan-21 07:00N 41°22' E 002°10'0 0.0
2018-Jan-21 06:30N 41°22' E 002°10'0 0.0
2018-Jan-21 06:00N 41°22' E 002°10'0 0.0
2018-Jan-21 05:30N 41°22' E 002°10'0 0.0
2018-Jan-21 05:00N 41°22' E 002°10'0 0.0
2018-Jan-21 04:30N 41°22' E 002°10'0 0.0
2018-Jan-21 04:00N 41°22' E 002°10'0 0.0
2018-Jan-21 03:30N 41°22' E 002°10'0 0.0
2018-Jan-21 02:59N 41°22' E 002°10'0 0.0
2018-Jan-21 02:30N 41°22' E 002°10'0 0.0
2018-Jan-21 02:00N 41°22' E 002°10'0 0.0
2018-Jan-21 01:30N 41°22' E 002°10'0 0.0
2018-Jan-21 01:00N 41°22' E 002°10'1 1.3
2018-Jan-21 00:30N 41°21' E 002°10'4 7.2
2018-Jan-21 00:00N 41°17' E 002°11'2 3.1
2018-Jan-20 23:30N 41°17' E 002°13'0 0.3
2018-Jan-20 23:00N 41°17' E 002°13'0 0.8
2018-Jan-20 22:30N 41°17' E 002°13'1 1.7
2018-Jan-20 22:00N 41°16' E 002°14'2 3.4
2018-Jan-20 21:30N 41°14' E 002°15'2 4.4
2018-Jan-20 21:00N 41°13' E 002°17'3 6.8
2018-Jan-20 20:30N 41°10' E 002°20'510.9
2018-Jan-20 20:00N 41°06' E 002°24'4611.4
2018-Jan-20 15:57N 40°30' E 003°04'28011.7
2018-Jan-19 16:08N 38°44' E 008°40'211.6
2018-Jan-19 15:59N 38°43' E 008°42'25212.3
2018-Jan-18 19:33N 37°01' E 013°33'211.8
2018-Jan-18 19:22N 36°59' E 013°35'411.6
2018-Jan-18 19:00N 36°57' E 013°39'611.4
2018-Jan-18 18:30N 36°54' E 013°45'611.2
2018-Jan-18 18:00N 36°51' E 013°51'611.4
2018-Jan-18 17:30N 36°48' E 013°57'611.4
2018-Jan-18 17:00N 36°45' E 014°03'611.5
2018-Jan-18 16:30N 36°42' E 014°09'611.7
2018-Jan-18 16:00N 36°39' E 014°16'611.3
2018-Jan-18 15:30N 36°36' E 014°21'611.5
2018-Jan-18 15:00N 36°33' E 014°27'611.9
2018-Jan-18 14:30N 36°29' E 014°33'611.7
2018-Jan-18 14:00N 36°26' E 014°40'  

Dump ship's entire track history